createdAt,value
2016-11-15T00:00:04.715Z,19.7
2016-11-15T00:01:04.698Z,19.62
2016-11-15T00:02:04.689Z,19.61
2016-11-15T00:03:04.350Z,19.6
2016-11-15T00:04:04.650Z,19.58
2016-11-15T00:05:04.634Z,19.67
2016-11-15T00:06:04.614Z,19.62
2016-11-15T00:07:03.971Z,19.62
2016-11-15T00:08:04.261Z,19.61
2016-11-15T00:09:04.253Z,19.65
2016-11-15T00:10:04.560Z,19.61
2016-11-15T00:11:04.542Z,19.62
2016-11-15T00:12:04.518Z,19.6
2016-11-15T00:13:04.709Z,19.62
2016-11-15T00:14:04.480Z,19.55
2016-11-15T00:15:04.146Z,19.55
2016-11-15T00:16:03.816Z,19.65
2016-11-15T00:17:04.463Z,19.62
2016-11-15T00:18:04.416Z,19.61
2016-11-15T00:19:04.405Z,19.6
2016-11-15T00:20:04.378Z,19.65
2016-11-15T00:21:04.052Z,19.55
2016-11-15T00:22:04.042Z,19.6
2016-11-15T00:23:04.334Z,19.57
2016-11-15T00:24:04.020Z,19.58
2016-11-15T00:25:04.303Z,19.58
2016-11-15T00:26:04.284Z,19.57
2016-11-15T00:27:04.272Z,19.57
2016-11-15T00:28:03.616Z,19.53
2016-11-15T00:29:04.234Z,19.52
2016-11-15T00:30:04.223Z,19.57
2016-11-15T00:31:04.198Z,19.57
2016-11-15T00:32:04.181Z,19.53
2016-11-15T00:33:04.186Z,19.4
2016-11-15T00:34:04.178Z,19.49
2016-11-15T00:35:03.823Z,19.43
2016-11-15T00:36:03.490Z,19.45
2016-11-15T00:37:04.108Z,19.49
2016-11-15T00:38:04.086Z,19.42
2016-11-15T00:39:04.071Z,19.43
2016-11-15T00:40:03.740Z,19.49
2016-11-15T00:41:03.722Z,19.39
2016-11-15T00:42:03.392Z,19.43
2016-11-15T00:43:04.006Z,19.4
2016-11-15T00:44:03.683Z,19.46
2016-11-15T00:45:03.986Z,19.45
2016-11-15T00:46:03.640Z,19.49
2016-11-15T00:47:03.937Z,19.35
2016-11-15T00:48:03.613Z,19.42
2016-11-15T00:49:03.593Z,19.35
2016-11-15T00:50:03.888Z,19.42
2016-11-15T00:51:03.885Z,19.43
2016-11-15T00:52:03.859Z,19.4
2016-11-15T00:53:03.528Z,19.32
2016-11-15T00:54:03.508Z,19.32
2016-11-15T00:55:03.811Z,19.35
2016-11-15T00:56:03.799Z,19.27
2016-11-15T00:57:03.768Z,19.23
2016-11-15T00:58:03.764Z,19.28
2016-11-15T00:59:03.421Z,19.25
2016-11-15T01:00:03.722Z,19.4
2016-11-15T01:01:03.707Z,19.31
2016-11-15T01:02:03.377Z,19.31
2016-11-15T01:03:03.673Z,19.25
2016-11-15T01:04:03.661Z,19.31
2016-11-15T01:05:03.650Z,19.24
2016-11-15T01:06:03.627Z,19.25
2016-11-15T01:07:03.291Z,19.3
2016-11-15T01:08:03.268Z,19.3
2016-11-15T01:09:03.576Z,19.28
2016-11-15T01:10:03.568Z,19.27
2016-11-15T01:11:03.223Z,19.23
2016-11-15T01:12:03.209Z,19.25
2016-11-15T01:13:03.508Z,19.28
2016-11-15T01:14:03.487Z,19.23
2016-11-15T01:15:03.510Z,19.28
2016-11-15T01:16:03.452Z,19.17
2016-11-15T01:17:03.161Z,19.28
2016-11-15T01:18:03.428Z,19.3
2016-11-15T01:19:03.405Z,19.24
2016-11-15T01:20:03.392Z,19.15
2016-11-15T01:21:03.376Z,19.27
2016-11-15T01:22:03.045Z,19.21
2016-11-15T01:23:03.031Z,19.27
2016-11-15T01:24:03.325Z,19.2
2016-11-15T01:25:03.306Z,19.23
2016-11-15T01:26:03.289Z,19.23
2016-11-15T01:27:03.273Z,19.21
2016-11-15T01:28:03.258Z,19.17
2016-11-15T01:29:03.241Z,19.23
2016-11-15T01:30:03.221Z,19.24
2016-11-15T01:31:03.214Z,19.21
2016-11-15T01:32:03.187Z,19.16
2016-11-15T01:33:03.182Z,19.12
2016-11-15T01:34:02.833Z,19.16
2016-11-15T01:35:02.831Z,19.24
2016-11-15T01:36:03.126Z,19.13
2016-11-15T01:37:02.824Z,19.24
2016-11-15T01:38:03.096Z,19.12
2016-11-15T01:39:03.081Z,19.17
2016-11-15T01:40:02.745Z,19.24
2016-11-15T01:41:02.760Z,19.24
2016-11-15T01:42:03.017Z,19.17
2016-11-15T01:43:03.006Z,19.23
2016-11-15T01:44:02.673Z,19.16
2016-11-15T01:45:02.663Z,19.23
2016-11-15T01:46:02.960Z,19.17
2016-11-15T01:47:02.623Z,19.09
2016-11-15T01:48:02.924Z,19.13
2016-11-15T01:49:02.917Z,19.15
2016-11-15T01:50:02.902Z,19.2
2016-11-15T01:51:02.247Z,19.17
2016-11-15T01:52:02.231Z,19.2
2016-11-15T01:53:02.840Z,19.3
2016-11-15T01:54:02.507Z,19.17
2016-11-15T01:55:02.803Z,19.16
2016-11-15T01:56:02.780Z,19.15
2016-11-15T01:57:02.773Z,19.17
2016-11-15T01:58:02.440Z,19.16
2016-11-15T01:59:02.735Z,19.24
2016-11-15T02:00:02.729Z,19.13
2016-11-15T02:01:02.707Z,19.2
2016-11-15T02:02:02.689Z,19.2
2016-11-15T02:03:02.672Z,19.15
2016-11-15T02:04:02.650Z,19.12
2016-11-15T02:05:02.639Z,19.21
2016-11-15T02:06:02.619Z,19.1
2016-11-15T02:07:02.293Z,19.07
2016-11-15T02:08:01.957Z,19.2
2016-11-15T02:09:01.940Z,19.15
2016-11-15T02:10:02.549Z,19.09
2016-11-15T02:11:02.538Z,19.13
2016-11-15T02:12:02.205Z,19.12
2016-11-15T02:13:02.191Z,19.1
2016-11-15T02:14:02.496Z,19.13
2016-11-15T02:15:02.482Z,19.12
2016-11-15T02:16:02.449Z,19.06
2016-11-15T02:17:02.119Z,19.06
2016-11-15T02:18:02.110Z,19.07
2016-11-15T02:19:02.433Z,19.06
2016-11-15T02:20:02.122Z,19.06
2016-11-15T02:21:02.406Z,19.07
2016-11-15T02:22:02.354Z,19.09
2016-11-15T02:23:02.335Z,18.97
2016-11-15T02:24:02.318Z,19.07
2016-11-15T02:25:02.313Z,19.01
2016-11-15T02:26:01.973Z,19.1
2016-11-15T02:27:02.274Z,19.1
2016-11-15T02:28:02.280Z,19.01
2016-11-15T02:29:01.922Z,19.05
2016-11-15T02:30:02.220Z,18.99
2016-11-15T02:31:02.208Z,18.97
2016-11-15T02:32:02.188Z,19.01
2016-11-15T02:33:02.169Z,18.99
2016-11-15T02:34:01.840Z,18.96
2016-11-15T02:35:01.825Z,18.96
2016-11-15T02:36:02.114Z,18.97
2016-11-15T02:37:02.099Z,18.97
2016-11-15T02:38:02.113Z,19.01
2016-11-15T02:39:02.080Z,18.94
2016-11-15T02:40:02.053Z,18.97
2016-11-15T02:41:02.040Z,18.99
2016-11-15T02:42:02.019Z,18.91
2016-11-15T02:43:01.691Z,19.02
2016-11-15T02:44:01.988Z,18.99
2016-11-15T02:45:01.656Z,19.01
2016-11-15T02:46:01.325Z,18.99
2016-11-15T02:47:01.625Z,18.97
2016-11-15T02:48:01.925Z,19.01
2016-11-15T02:49:01.902Z,18.93
2016-11-15T02:50:01.577Z,18.97
2016-11-15T02:51:01.868Z,18.94
2016-11-15T02:52:01.848Z,18.96
2016-11-15T02:53:01.517Z,19.01
2016-11-15T02:54:01.500Z,18.97
2016-11-15T02:55:01.487Z,18.91
2016-11-15T02:56:01.787Z,18.96
2016-11-15T02:57:01.448Z,18.94
2016-11-15T02:58:01.742Z,18.99
2016-11-15T02:59:01.738Z,18.96
2016-11-15T03:00:01.398Z,18.84
2016-11-15T03:01:01.697Z,18.87
2016-11-15T03:02:01.682Z,18.9
2016-11-15T03:03:01.351Z,18.87
2016-11-15T03:04:01.649Z,18.87
2016-11-15T03:05:01.632Z,18.86
2016-11-15T03:06:01.605Z,18.87
2016-11-15T03:07:01.601Z,18.86
2016-11-15T03:08:01.578Z,18.84
2016-11-15T03:09:01.569Z,18.9
2016-11-15T03:10:01.549Z,18.86
2016-11-15T03:11:01.216Z,18.94
2016-11-15T03:12:01.203Z,18.89
2016-11-15T03:13:01.184Z,18.83
2016-11-15T03:14:01.489Z,18.89
2016-11-15T03:15:01.454Z,18.84
2016-11-15T03:16:01.130Z,18.91
2016-11-15T03:17:01.113Z,18.76
2016-11-15T03:18:01.415Z,18.76
2016-11-15T03:19:00.768Z,18.75
2016-11-15T03:20:01.387Z,18.74
2016-11-15T03:21:01.362Z,18.74
2016-11-15T03:22:01.340Z,18.78
2016-11-15T03:23:01.338Z,18.76
2016-11-15T03:24:00.992Z,18.78
2016-11-15T03:25:00.980Z,18.75
2016-11-15T03:26:01.277Z,18.76
2016-11-15T03:27:01.264Z,18.74
2016-11-15T03:28:01.239Z,18.71
2016-11-15T03:29:01.230Z,18.82
2016-11-15T03:30:01.212Z,18.78
2016-11-15T03:31:00.875Z,18.84
2016-11-15T03:32:01.172Z,18.83
2016-11-15T03:33:00.841Z,18.75
2016-11-15T03:34:01.141Z,18.76
2016-11-15T03:35:00.802Z,18.76
2016-11-15T03:36:00.822Z,18.75
2016-11-15T03:37:01.088Z,18.76
2016-11-15T03:38:00.754Z,18.79
2016-11-15T03:39:01.055Z,18.79
2016-11-15T03:40:00.718Z,18.83
2016-11-15T03:41:01.027Z,18.82
2016-11-15T03:42:00.687Z,18.75
2016-11-15T03:43:00.990Z,18.82
2016-11-15T03:44:00.971Z,18.78
2016-11-15T03:45:00.949Z,18.72
2016-11-15T03:46:00.939Z,18.75
2016-11-15T03:47:00.915Z,18.79
2016-11-15T03:48:00.904Z,18.75
2016-11-15T03:49:00.880Z,18.74
2016-11-15T03:50:00.870Z,18.79
2016-11-15T03:51:00.852Z,18.78
2016-11-15T03:52:00.842Z,18.78
2016-11-15T03:53:00.500Z,18.74
2016-11-15T03:54:00.802Z,18.72
2016-11-15T03:55:00.786Z,18.76
2016-11-15T03:56:00.757Z,18.75
2016-11-15T03:57:00.437Z,18.72
2016-11-15T03:58:00.736Z,18.62
2016-11-15T03:59:00.407Z,18.71
2016-11-15T04:00:00.701Z,18.74
2016-11-15T04:01:00.712Z,18.72
2016-11-15T04:02:00.358Z,18.74
2016-11-15T04:03:00.650Z,18.74
2016-11-15T04:04:00.637Z,18.74
2016-11-15T04:05:00.302Z,18.74
2016-11-15T04:06:00.603Z,18.72
2016-11-15T04:07:00.261Z,18.76
2016-11-15T04:08:00.573Z,18.71
2016-11-15T04:09:00.551Z,18.74
2016-11-15T04:10:00.563Z,18.75
2016-11-15T04:11:00.202Z,18.75
2016-11-15T04:12:00.499Z,18.79
2016-11-15T04:13:00.484Z,18.74
2016-11-15T04:14:00.457Z,18.79
2016-11-15T04:15:00.127Z,18.76
2016-11-15T04:16:00.118Z,18.74
2016-11-15T04:17:00.409Z,18.74
2016-11-15T04:18:00.396Z,18.79
2016-11-15T04:19:00.373Z,18.76
2016-11-15T04:20:00.367Z,18.62
2016-11-15T04:21:00.342Z,18.74
2016-11-15T04:22:00.333Z,18.71
2016-11-15T04:23:00.310Z,18.78
2016-11-15T04:24:00.284Z,18.69
2016-11-15T04:25:00.275Z,18.71
2016-11-15T04:26:00.256Z,18.69
2016-11-15T04:27:00.245Z,18.69
2016-11-15T04:27:59.903Z,18.71
2016-11-15T04:29:00.216Z,18.66
2016-11-15T04:30:00.191Z,18.65
2016-11-15T04:31:00.162Z,18.6
2016-11-15T04:32:00.156Z,18.72
2016-11-15T04:32:59.510Z,18.71
2016-11-15T04:34:00.125Z,18.69
2016-11-15T04:35:00.099Z,18.64
2016-11-15T04:36:00.095Z,18.64
2016-11-15T04:36:59.767Z,18.75
2016-11-15T04:38:00.051Z,18.71
2016-11-15T04:39:00.035Z,18.68
2016-11-15T04:40:00.017Z,18.59
2016-11-15T04:41:00.008Z,18.66
2016-11-15T04:41:59.987Z,18.62
2016-11-15T04:42:59.665Z,18.57
2016-11-15T04:43:59.954Z,18.68
2016-11-15T04:44:59.935Z,18.66
2016-11-15T04:45:59.924Z,18.64
2016-11-15T04:46:59.900Z,18.68
2016-11-15T04:47:59.615Z,18.68
2016-11-15T04:48:59.868Z,18.64
2016-11-15T04:49:59.856Z,18.57
2016-11-15T04:50:59.836Z,18.59
2016-11-15T04:51:59.819Z,18.62
2016-11-15T04:52:59.803Z,18.65
2016-11-15T04:53:59.472Z,18.62
2016-11-15T04:54:59.802Z,18.72
2016-11-15T04:55:59.747Z,18.65
2016-11-15T04:56:59.448Z,18.65
2016-11-15T04:57:59.721Z,18.62
2016-11-15T04:58:59.706Z,18.64
2016-11-15T04:59:59.367Z,18.6
2016-11-15T05:00:59.667Z,18.68
2016-11-15T05:01:59.647Z,18.59
2016-11-15T05:02:59.625Z,18.68
2016-11-15T05:03:59.616Z,18.66
2016-11-15T05:04:59.632Z,18.6
2016-11-15T05:05:59.581Z,18.62
2016-11-15T05:06:59.560Z,18.76
2016-11-15T05:07:59.227Z,18.71
2016-11-15T05:08:59.532Z,18.91
2016-11-15T05:09:59.194Z,18.97
2016-11-15T05:10:59.501Z,19.06
2016-11-15T05:11:59.470Z,19.12
2016-11-15T05:12:58.867Z,19.2
2016-11-15T05:13:58.829Z,19.17
2016-11-15T05:14:59.421Z,19.25
2016-11-15T05:15:59.412Z,19.3
2016-11-15T05:16:59.080Z,19.39
2016-11-15T05:17:59.377Z,19.5
2016-11-15T05:18:59.360Z,19.52
2016-11-15T05:19:59.337Z,19.52
2016-11-15T05:20:59.012Z,19.61
2016-11-15T05:21:59.304Z,19.57
2016-11-15T05:22:59.293Z,19.67
2016-11-15T05:23:59.271Z,19.64
2016-11-15T05:24:59.260Z,19.75
2016-11-15T05:25:59.241Z,19.75
2016-11-15T05:26:59.228Z,19.78
2016-11-15T05:27:58.888Z,19.83
2016-11-15T05:28:59.190Z,19.83
2016-11-15T05:29:59.170Z,19.82
2016-11-15T05:30:59.155Z,19.85
2016-11-15T05:31:59.138Z,19.97
2016-11-15T05:32:59.163Z,19.92
2016-11-15T05:33:59.109Z,19.97
2016-11-15T05:34:59.086Z,19.95
2016-11-15T05:35:59.077Z,19.94
2016-11-15T05:36:59.056Z,19.94
2016-11-15T05:37:59.037Z,19.92
2016-11-15T05:38:58.701Z,19.98
2016-11-15T05:39:59.012Z,20
2016-11-15T05:40:58.359Z,20
2016-11-15T05:41:58.974Z,19.97
2016-11-15T05:42:58.958Z,19.94
2016-11-15T05:43:58.939Z,19.95
2016-11-15T05:44:58.642Z,20
2016-11-15T05:45:58.598Z,19.94
2016-11-15T05:46:58.894Z,19.98
2016-11-15T05:47:58.879Z,19.95
2016-11-15T05:48:58.539Z,20.01
2016-11-15T05:49:58.839Z,20
2016-11-15T05:50:58.817Z,19.95
2016-11-15T05:51:58.809Z,20
2016-11-15T05:52:58.796Z,20.01
2016-11-15T05:53:58.775Z,20.05
2016-11-15T05:54:58.760Z,20.05
2016-11-15T05:55:58.456Z,20
2016-11-15T05:56:58.407Z,20.02
2016-11-15T05:57:58.713Z,20.05
2016-11-15T05:58:58.377Z,20.12
2016-11-15T05:59:58.358Z,20.16
2016-11-15T06:00:58.379Z,20.07
2016-11-15T06:01:58.644Z,20.12
2016-11-15T06:02:58.630Z,20.13
2016-11-15T06:03:58.609Z,20.2
2016-11-15T06:04:58.595Z,20.05
2016-11-15T06:05:57.941Z,20.13
2016-11-15T06:06:58.556Z,20.13
2016-11-15T06:07:58.222Z,20.07
2016-11-15T06:08:58.211Z,20.1
2016-11-15T06:09:58.198Z,20.17
2016-11-15T06:10:58.491Z,20.17
2016-11-15T06:11:58.159Z,20.16
2016-11-15T06:12:58.462Z,20.22
2016-11-15T06:13:58.441Z,20.25
2016-11-15T06:14:58.469Z,20.2
2016-11-15T06:15:58.437Z,20.19
2016-11-15T06:16:58.395Z,20.22
2016-11-15T06:17:58.062Z,20.16
2016-11-15T06:18:58.039Z,20.22
2016-11-15T06:19:58.031Z,20.19
2016-11-15T06:20:58.020Z,20.16
2016-11-15T06:21:58.325Z,20
2016-11-15T06:22:58.294Z,19.8
2016-11-15T06:23:58.285Z,19.78
2016-11-15T06:24:58.266Z,19.8
2016-11-15T06:25:58.246Z,19.78
2016-11-15T06:26:58.229Z,19.83
2016-11-15T06:27:58.215Z,19.78
2016-11-15T06:28:58.188Z,19.85
2016-11-15T06:29:58.186Z,19.86
2016-11-15T06:30:58.161Z,19.92
2016-11-15T06:31:58.180Z,19.8
2016-11-15T06:32:58.134Z,19.83
2016-11-15T06:33:57.800Z,19.82
2016-11-15T06:34:58.103Z,19.87
2016-11-15T06:35:58.079Z,19.95
2016-11-15T06:36:58.065Z,19.92
2016-11-15T06:37:58.052Z,20.04
2016-11-15T06:38:58.034Z,19.97
2016-11-15T06:39:58.021Z,20.1
2016-11-15T06:40:57.718Z,20.13
2016-11-15T06:41:57.985Z,20.1
2016-11-15T06:42:57.649Z,20.13
2016-11-15T06:43:57.664Z,20.13
2016-11-15T06:44:57.943Z,20.16
2016-11-15T06:45:57.944Z,20.17
2016-11-15T06:46:57.898Z,20.19
2016-11-15T06:47:57.569Z,20.17
2016-11-15T06:48:57.865Z,20.15
2016-11-15T06:49:57.851Z,20.23
2016-11-15T06:50:57.837Z,20.27
2016-11-15T06:51:57.826Z,20.33
2016-11-15T06:52:57.803Z,20.33
2016-11-15T06:53:57.791Z,20.33
2016-11-15T06:54:57.457Z,20.3
2016-11-15T06:55:57.470Z,20.2
2016-11-15T06:56:57.421Z,20.27
2016-11-15T06:57:57.404Z,20.33
2016-11-15T06:58:57.388Z,20.3
2016-11-15T06:59:57.717Z,20.3
2016-11-15T07:00:57.710Z,20.34
2016-11-15T07:01:57.655Z,20.27
2016-11-15T07:02:57.642Z,20.35
2016-11-15T07:03:57.310Z,20.35
2016-11-15T07:04:57.612Z,20.34
2016-11-15T07:05:57.597Z,20.33
2016-11-15T07:06:57.582Z,20.38
2016-11-15T07:07:57.557Z,20.38
2016-11-15T07:08:57.226Z,20.34
2016-11-15T07:09:57.521Z,20.38
2016-11-15T07:10:57.509Z,20.35
2016-11-15T07:11:57.177Z,20.33
2016-11-15T07:12:57.175Z,20.31
2016-11-15T07:13:57.144Z,20.37
2016-11-15T07:14:57.139Z,20.38
2016-11-15T07:15:57.427Z,20.35
2016-11-15T07:16:57.096Z,20.35
2016-11-15T07:17:57.077Z,20.4
2016-11-15T07:18:57.066Z,20.38
2016-11-15T07:19:57.372Z,20.35
2016-11-15T07:20:57.345Z,20.38
2016-11-15T07:21:57.333Z,20.37
2016-11-15T07:22:57.308Z,20.34
2016-11-15T07:23:57.295Z,20.35
2016-11-15T07:24:57.283Z,20.35
2016-11-15T07:25:57.268Z,20.35
2016-11-15T07:26:57.253Z,20.38
2016-11-15T07:27:57.230Z,20.41
2016-11-15T07:28:57.212Z,20.38
2016-11-15T07:29:57.197Z,20.37
2016-11-15T07:30:57.182Z,20.42
2016-11-15T07:31:57.162Z,20.33
2016-11-15T07:32:57.151Z,20.41
2016-11-15T07:33:57.141Z,20.33
2016-11-15T07:34:57.119Z,20.41
2016-11-15T07:35:57.101Z,20.44
2016-11-15T07:36:57.090Z,20.46
2016-11-15T07:37:57.063Z,20.44
2016-11-15T07:38:57.051Z,20.46
2016-11-15T07:39:56.771Z,20.46
2016-11-15T07:40:57.020Z,20.51
2016-11-15T07:41:56.997Z,20.42
2016-11-15T07:42:56.986Z,20.44
2016-11-15T07:43:56.965Z,20.48
2016-11-15T07:44:56.957Z,20.51
2016-11-15T07:45:56.980Z,20.48
2016-11-15T07:46:56.927Z,20.35
2016-11-15T07:47:56.905Z,20.42
2016-11-15T07:48:56.889Z,20.44
2016-11-15T07:49:56.872Z,20.51
2016-11-15T07:50:56.862Z,20.44
2016-11-15T07:51:56.845Z,20.51
2016-11-15T07:52:56.509Z,20.48
2016-11-15T07:53:56.806Z,20.48
2016-11-15T07:54:56.485Z,20.57
2016-11-15T07:55:56.184Z,20.6
2016-11-15T07:56:56.762Z,20.58
2016-11-15T07:57:56.747Z,20.58
2016-11-15T07:58:56.740Z,20.53
2016-11-15T07:59:56.719Z,20.51
2016-11-15T08:00:56.386Z,20.58
2016-11-15T08:01:56.909Z,20.57
2016-11-15T08:02:56.350Z,20.63
2016-11-15T08:03:56.648Z,20.58
2016-11-15T08:04:56.631Z,20.64
2016-11-15T08:05:56.676Z,20.64
2016-11-15T08:06:56.641Z,20.64
2016-11-15T08:07:56.580Z,20.6
2016-11-15T08:08:56.572Z,20.61
2016-11-15T08:09:56.547Z,20.66
2016-11-15T08:10:56.569Z,20.64
2016-11-15T08:11:56.522Z,20.61
2016-11-15T08:12:56.503Z,20.66
2016-11-15T08:13:56.490Z,20.64
2016-11-15T08:14:56.479Z,20.58
2016-11-15T08:15:56.459Z,20.66
2016-11-15T08:16:56.444Z,20.61
2016-11-15T08:17:56.425Z,20.66
2016-11-15T08:18:56.414Z,20.61
2016-11-15T08:19:56.417Z,20.64
2016-11-15T08:20:56.384Z,20.66
2016-11-15T08:21:56.047Z,20.69
2016-11-15T08:22:56.353Z,20.71
2016-11-15T08:23:56.016Z,20.68
2016-11-15T08:24:56.316Z,20.66
2016-11-15T08:25:56.298Z,20.64
2016-11-15T08:26:56.285Z,20.63
2016-11-15T08:27:55.639Z,20.64
2016-11-15T08:28:56.488Z,20.63
2016-11-15T08:29:56.242Z,20.61
2016-11-15T08:30:56.222Z,20.64
2016-11-15T08:31:56.209Z,20.64
2016-11-15T08:32:56.187Z,20.68
2016-11-15T08:33:56.177Z,20.69
2016-11-15T08:34:57.030Z,20.69
2016-11-15T08:35:56.146Z,20.6
2016-11-15T08:36:56.121Z,20.66
2016-11-15T08:37:56.109Z,20.64
2016-11-15T08:38:56.089Z,20.71
2016-11-15T08:39:56.070Z,20.66
2016-11-15T08:40:56.055Z,20.69
2016-11-15T08:41:56.082Z,20.71
2016-11-15T08:42:55.712Z,20.71
2016-11-15T08:43:56.214Z,20.69
2016-11-15T08:44:55.994Z,20.68
2016-11-15T08:45:56.293Z,20.64
2016-11-15T08:46:56.030Z,20.64
2016-11-15T08:47:55.971Z,20.66
2016-11-15T08:48:55.985Z,20.66
2016-11-15T08:49:55.605Z,20.6
2016-11-15T08:50:55.911Z,20.63
2016-11-15T08:51:55.884Z,20.6
2016-11-15T08:52:55.867Z,20.69
2016-11-15T08:53:55.547Z,20.75
2016-11-15T08:55:01.629Z,20.66
2016-11-15T08:55:55.823Z,20.68
2016-11-15T08:56:55.802Z,20.73
2016-11-15T08:57:55.793Z,20.72
2016-11-15T08:58:55.782Z,20.58
2016-11-15T08:59:55.760Z,20.71
2016-11-15T09:00:55.739Z,20.81
2016-11-15T09:01:55.730Z,20.72
2016-11-15T09:02:55.397Z,20.69
2016-11-15T09:03:55.698Z,20.66
2016-11-15T09:04:55.681Z,20.63
2016-11-15T09:05:55.355Z,20.66
2016-11-15T09:06:55.648Z,20.66
2016-11-15T09:07:55.323Z,20.64
2016-11-15T09:08:55.297Z,20.64
2016-11-15T09:09:55.635Z,20.68
2016-11-15T09:10:55.580Z,20.64
2016-11-15T09:11:55.568Z,20.64
2016-11-15T09:12:55.576Z,20.57
2016-11-15T09:13:55.536Z,20.64
2016-11-15T09:14:55.523Z,20.66
2016-11-15T09:15:55.182Z,20.66
2016-11-15T09:16:55.487Z,20.68
2016-11-15T09:17:55.469Z,20.71
2016-11-15T09:18:55.198Z,20.63
2016-11-15T09:19:55.471Z,20.64
2016-11-15T09:20:55.432Z,20.61
2016-11-15T09:21:55.083Z,20.63
2016-11-15T09:22:55.393Z,20.73
2016-11-15T09:23:55.375Z,20.72
2016-11-15T09:24:55.052Z,20.73
2016-11-15T09:25:55.352Z,20.71
2016-11-15T09:26:55.340Z,20.76
2016-11-15T09:27:55.002Z,20.66
2016-11-15T09:28:55.297Z,20.72
2016-11-15T09:29:54.648Z,20.63
2016-11-15T09:30:55.275Z,20.73
2016-11-15T09:31:55.250Z,20.75
2016-11-15T09:32:55.232Z,20.64
2016-11-15T09:33:55.353Z,20.78
2016-11-15T09:34:54.888Z,20.66
2016-11-15T09:35:54.875Z,20.69
2016-11-15T09:36:55.180Z,20.75
2016-11-15T09:37:54.843Z,20.76
2016-11-15T09:38:55.141Z,20.75
2016-11-15T09:39:55.123Z,20.73
2016-11-15T09:40:55.107Z,20.69
2016-11-15T09:41:54.776Z,20.78
2016-11-15T09:42:55.081Z,20.78
2016-11-15T09:43:54.746Z,20.78
2016-11-15T09:44:55.044Z,20.72
2016-11-15T09:45:55.055Z,20.63
2016-11-15T09:46:55.052Z,20.71
2016-11-15T09:47:54.997Z,20.79
2016-11-15T09:48:54.666Z,20.69
2016-11-15T09:49:54.969Z,20.75
2016-11-15T09:50:54.980Z,20.75
2016-11-15T09:51:54.935Z,20.75
2016-11-15T09:52:54.926Z,20.73
2016-11-15T09:53:54.908Z,20.79
2016-11-15T09:54:54.571Z,20.63
2016-11-15T09:55:54.874Z,20.72
2016-11-15T09:56:54.565Z,20.72
2016-11-15T09:57:54.841Z,20.73
2016-11-15T09:58:54.510Z,20.76
2016-11-15T09:59:54.701Z,20.75
2016-11-15T10:00:54.794Z,20.73
2016-11-15T10:01:54.777Z,20.71
2016-11-15T10:02:54.449Z,20.76
2016-11-15T10:03:54.748Z,20.63
2016-11-15T10:04:54.412Z,20.73
2016-11-15T10:05:54.716Z,20.75
2016-11-15T10:06:54.697Z,20.72
2016-11-15T10:07:54.682Z,20.73
2016-11-15T10:08:54.350Z,20.72
2016-11-15T10:09:54.649Z,20.76
2016-11-15T10:10:54.634Z,20.75
2016-11-15T10:11:54.619Z,20.79
2016-11-15T10:12:54.614Z,20.82
2016-11-15T10:13:54.600Z,20.73
2016-11-15T10:14:54.572Z,20.71
2016-11-15T10:15:54.564Z,20.76
2016-11-15T10:16:54.537Z,20.79
2016-11-15T10:17:54.528Z,20.75
2016-11-15T10:18:54.503Z,20.76
2016-11-15T10:19:54.488Z,20.73
2016-11-15T10:20:54.176Z,20.73
2016-11-15T10:21:54.396Z,20.83
2016-11-15T10:22:54.134Z,20.73
2016-11-15T10:23:54.429Z,20.78
2016-11-15T10:24:54.420Z,20.85
2016-11-15T10:25:54.396Z,20.73
2016-11-15T10:26:54.392Z,20.79
2016-11-15T10:27:54.370Z,20.76
2016-11-15T10:28:54.030Z,20.76
2016-11-15T10:29:54.335Z,20.79
2016-11-15T10:30:54.005Z,20.79
2016-11-15T10:31:54.299Z,20.76
2016-11-15T10:32:54.283Z,20.76
2016-11-15T10:33:54.270Z,20.73
2016-11-15T10:34:54.261Z,20.76
2016-11-15T10:35:53.928Z,20.73
2016-11-15T10:36:54.227Z,20.69
2016-11-15T10:37:54.204Z,20.75
2016-11-15T10:38:53.876Z,20.76
2016-11-15T10:39:54.183Z,20.69
2016-11-15T10:40:54.161Z,20.73
2016-11-15T10:41:54.150Z,20.78
2016-11-15T10:42:54.131Z,20.75
2016-11-15T10:43:54.119Z,20.75
2016-11-15T10:44:54.133Z,20.76
2016-11-15T10:45:54.086Z,20.73
2016-11-15T10:46:54.068Z,20.75
2016-11-15T10:47:54.053Z,20.76
2016-11-15T10:48:54.036Z,20.78
2016-11-15T10:49:54.025Z,20.75
2016-11-15T10:50:53.688Z,20.75
2016-11-15T10:51:53.674Z,20.76
2016-11-15T10:52:53.971Z,20.75
2016-11-15T10:53:53.638Z,20.76
2016-11-15T10:54:53.939Z,20.71
2016-11-15T10:55:53.608Z,20.76
2016-11-15T10:56:53.906Z,20.73
2016-11-15T10:57:53.896Z,20.76
2016-11-15T10:58:53.564Z,20.75
2016-11-15T10:59:53.858Z,20.79
2016-11-15T11:00:53.855Z,20.73
2016-11-15T11:01:53.824Z,20.75
2016-11-15T11:02:53.808Z,20.73
2016-11-15T11:03:53.795Z,20.76
2016-11-15T11:04:53.786Z,20.73
2016-11-15T11:05:53.453Z,20.6
2016-11-15T11:06:53.430Z,20.48
2016-11-15T11:07:53.419Z,20.57
2016-11-15T11:08:53.719Z,20.63
2016-11-15T11:09:53.706Z,20.72
2016-11-15T11:10:53.696Z,20.71
2016-11-15T11:11:53.674Z,20.61
2016-11-15T11:12:53.343Z,20.61
2016-11-15T11:13:53.631Z,20.66
2016-11-15T11:14:53.312Z,20.64
2016-11-15T11:15:53.609Z,20.66
2016-11-15T11:16:53.598Z,20.69
2016-11-15T11:17:53.577Z,20.72
2016-11-15T11:18:53.558Z,20.79
2016-11-15T11:19:53.544Z,20.75
2016-11-15T11:20:53.525Z,20.83
2016-11-15T11:21:53.512Z,20.75
2016-11-15T11:22:53.498Z,20.78
2016-11-15T11:23:53.481Z,20.72
2016-11-15T11:24:53.454Z,20.71
2016-11-15T11:25:53.128Z,20.68
2016-11-15T11:26:53.429Z,20.66
2016-11-15T11:27:53.416Z,20.72
2016-11-15T11:28:53.399Z,20.61
2016-11-15T11:29:53.071Z,20.64
2016-11-15T11:30:53.373Z,20.64
2016-11-15T11:31:53.347Z,20.63
2016-11-15T11:32:53.018Z,20.75
2016-11-15T11:33:53.320Z,20.71
2016-11-15T11:34:53.308Z,20.76
2016-11-15T11:35:53.286Z,20.75
2016-11-15T11:36:52.974Z,20.71
2016-11-15T11:37:53.254Z,20.63
2016-11-15T11:38:53.253Z,20.66
2016-11-15T11:39:53.223Z,20.63
2016-11-15T11:40:53.210Z,20.72
2016-11-15T11:41:53.190Z,20.61
2016-11-15T11:42:52.860Z,20.61
2016-11-15T11:43:53.159Z,20.63
2016-11-15T11:44:53.147Z,20.6
2016-11-15T11:45:53.130Z,20.64
2016-11-15T11:46:52.803Z,20.69
2016-11-15T11:47:53.102Z,20.71
2016-11-15T11:48:52.763Z,20.63
2016-11-15T11:49:53.063Z,20.66
2016-11-15T11:50:53.046Z,20.71
2016-11-15T11:51:52.715Z,20.64
2016-11-15T11:52:53.016Z,20.76
2016-11-15T11:53:53.000Z,20.76
2016-11-15T11:54:52.983Z,20.79
2016-11-15T11:55:52.646Z,20.71
2016-11-15T11:56:52.959Z,20.78
2016-11-15T11:57:52.631Z,20.73
2016-11-15T11:58:52.927Z,20.72
2016-11-15T11:59:52.906Z,20.75
2016-11-15T12:00:52.895Z,20.73
2016-11-15T12:01:52.879Z,20.76
2016-11-15T12:02:52.238Z,20.73
2016-11-15T12:03:52.543Z,20.71
2016-11-15T12:04:52.688Z,20.72
2016-11-15T12:05:52.493Z,20.61
2016-11-15T12:06:52.793Z,20.58
2016-11-15T12:07:52.782Z,20.56
2016-11-15T12:08:52.770Z,20.46
2016-11-15T12:09:52.755Z,20.42
2016-11-15T12:10:52.415Z,20.46
2016-11-15T12:11:52.725Z,20.5
2016-11-15T12:12:52.390Z,20.5
2016-11-15T12:13:52.724Z,20.6
2016-11-15T12:14:52.682Z,20.63
2016-11-15T12:15:52.350Z,20.68
2016-11-15T12:16:52.332Z,20.66
2016-11-15T12:17:51.995Z,20.72
2016-11-15T12:18:52.915Z,20.73
2016-11-15T12:19:52.577Z,20.66
2016-11-15T12:20:52.571Z,20.64
2016-11-15T12:21:52.592Z,20.64
2016-11-15T12:22:52.538Z,20.75
2016-11-15T12:23:52.528Z,20.63
2016-11-15T12:24:52.197Z,20.63
2016-11-15T12:25:52.493Z,20.73
2016-11-15T12:26:52.511Z,20.61
2016-11-15T12:27:52.453Z,20.6
2016-11-15T12:28:52.444Z,20.71
2016-11-15T12:29:52.423Z,20.72
2016-11-15T12:30:52.410Z,20.75
2016-11-15T12:31:52.081Z,20.64
2016-11-15T12:32:52.079Z,20.76
2016-11-15T12:33:52.364Z,20.76
2016-11-15T12:34:52.348Z,20.38
2016-11-15T12:35:52.342Z,18.75
2016-11-15T12:36:52.013Z,18.21
2016-11-15T12:37:52.299Z,17.28
2016-11-15T12:38:51.970Z,16.9
2016-11-15T12:39:52.267Z,16.91
2016-11-15T12:40:52.253Z,16.5
2016-11-15T12:41:52.233Z,16.75
2016-11-15T12:42:52.211Z,17.47
2016-11-15T12:43:52.236Z,18.11
2016-11-15T12:44:51.881Z,18.56
2016-11-15T12:45:52.178Z,18.97
2016-11-15T12:46:51.840Z,19.28
2016-11-15T12:47:52.137Z,19.6
2016-11-15T12:48:51.808Z,19.75
2016-11-15T12:49:52.103Z,19.95
2016-11-15T12:50:52.091Z,20.16
2016-11-15T12:51:52.070Z,20.19
2016-11-15T12:52:52.053Z,20.26
2016-11-15T12:53:52.042Z,20.37
2016-11-15T12:54:52.023Z,20.42